ADDS METAR Data

Data at: 0528 UTC 20 Sep 2017

METAR for:KSDL (Scottsdale Muni, AZ, US)
Text:KSDL 200453Z AUTO 26005KT 10SM CLR 30/M03 A2980 RMK AO2 SLP066 T03001028
Temperature: 30.0°C ( 86°F)
Dewpoint: -2.8°C ( 27°F) [RH = 12%]
Pressure (altimeter):29.80 inches Hg (1009.2 mb) [Sea level pressure: 1006.6 mb]
Winds:from the W (260 degrees) at 6 MPH (5 knots; 2.6 m/s)
Visibility:10 or more sm (16+ km)
Ceiling:at least 12,000 feet AGL
Clouds:sky clear below 12,000 feet AGL
QC Flag:automated observation with no human augmentation